createdAt,value
2023-02-06T00:00:54.647Z,100787.19
2023-02-06T00:03:21.317Z,100786.31
2023-02-06T00:06:00.825Z,100785.44
2023-02-06T00:08:28.256Z,100788.94
2023-02-06T00:10:55.235Z,100784.59
2023-02-06T00:13:22.527Z,100790.66
2023-02-06T00:15:49.173Z,100791.53
2023-02-06T00:18:15.843Z,100791.53
2023-02-06T00:20:42.410Z,100798.47
2023-02-06T00:23:09.029Z,100795.88
2023-02-06T00:25:35.926Z,100793.28
2023-02-06T00:28:02.690Z,100797.59
2023-02-06T00:30:29.530Z,100795.84
2023-02-06T00:32:56.118Z,100803.66
2023-02-06T00:35:22.734Z,100801.09
2023-02-06T00:37:49.568Z,100808.00
2023-02-06T00:40:17.005Z,100804.56
2023-02-06T00:42:43.728Z,100812.38
2023-02-06T00:45:10.959Z,100812.38
2023-02-06T00:47:37.580Z,100810.63
2023-02-06T00:50:04.677Z,100805.41
2023-02-06T00:52:31.502Z,100800.19
2023-02-06T00:54:58.066Z,100806.25
2023-02-06T00:57:24.612Z,100812.34
2023-02-06T00:59:51.202Z,100806.28
2023-02-06T01:02:17.779Z,100809.75
2023-02-06T01:04:44.316Z,100814.97
2023-02-06T01:07:10.910Z,100808.88
2023-02-06T01:09:37.578Z,100807.16
2023-02-06T01:12:04.348Z,100809.75
2023-02-06T01:14:30.908Z,100808.88
2023-02-06T01:16:57.448Z,100804.56
2023-02-06T01:19:24.000Z,100805.41
2023-02-06T01:21:50.725Z,100803.69
2023-02-06T01:24:17.246Z,100803.66
2023-02-06T01:26:43.825Z,100808.88
2023-02-06T01:29:10.490Z,100808.88
2023-02-06T01:31:37.219Z,100814.09
2023-02-06T01:34:03.880Z,100808.88
2023-02-06T01:36:30.563Z,100801.94
2023-02-06T01:38:57.230Z,100802.81
2023-02-06T01:41:24.130Z,100802.81
2023-02-06T01:44:13.388Z,100804.53
2023-02-06T01:46:41.431Z,100813.22
2023-02-06T01:49:12.483Z,100809.72
2023-02-06T01:51:40.219Z,100802.81
2023-02-06T01:54:07.696Z,100815.81
2023-02-06T01:56:39.739Z,100812.34
2023-02-06T01:59:06.650Z,100809.72
2023-02-06T02:01:34.091Z,100819.28
2023-02-06T02:04:06.704Z,100810.63
2023-02-06T02:06:34.736Z,100811.47
2023-02-06T02:09:03.225Z,100811.47
2023-02-06T02:11:33.263Z,100807.16
2023-02-06T02:14:01.932Z,100805.41
2023-02-06T02:16:31.399Z,100800.19
2023-02-06T02:19:22.792Z,100795.00
2023-02-06T02:21:55.156Z,100789.78
2023-02-06T02:24:41.607Z,100789.78
2023-02-06T02:27:26.396Z,100786.28
2023-02-06T02:29:52.942Z,100785.44
2023-02-06T02:32:44.551Z,100786.28
2023-02-06T02:35:29.873Z,100780.25
2023-02-06T02:38:06.299Z,100780.22
2023-02-06T02:40:57.298Z,100786.28
2023-02-06T02:43:26.770Z,100770.66
2023-02-06T02:46:04.382Z,100772.38
2023-02-06T02:48:39.857Z,100781.09
2023-02-06T02:51:08.062Z,100781.06
2023-02-06T02:53:34.754Z,100780.22
2023-02-06T02:56:01.543Z,100774.13
2023-02-06T02:58:33.822Z,100785.41
2023-02-06T03:01:08.980Z,100789.78
2023-02-06T03:03:40.392Z,100791.47
2023-02-06T03:06:12.830Z,100791.50
2023-02-06T03:09:01.029Z,100775.88
2023-02-06T03:11:27.947Z,100779.34
2023-02-06T03:13:57.323Z,100775.84
2023-02-06T03:16:29.841Z,100775.00
2023-02-06T03:19:11.187Z,100775.88
2023-02-06T03:21:39.379Z,100780.22
2023-02-06T03:24:13.292Z,100780.22
2023-02-06T03:26:41.754Z,100769.81
2023-02-06T03:29:12.523Z,100771.53
2023-02-06T03:31:50.015Z,100773.28
2023-02-06T03:34:30.534Z,100772.41
2023-02-06T03:36:57.417Z,100770.66
2023-02-06T03:39:24.076Z,100771.53
2023-02-06T03:41:51.879Z,100781.09
2023-02-06T03:44:24.252Z,100782.81
2023-02-06T03:46:53.280Z,100783.63
2023-02-06T03:49:24.301Z,100781.91
2023-02-06T03:52:07.601Z,100782.81
2023-02-06T03:54:38.370Z,100787.13
2023-02-06T03:57:07.547Z,100788.84
2023-02-06T03:59:34.300Z,100797.53
2023-02-06T04:02:03.909Z,100793.22
2023-02-06T04:04:41.973Z,100794.06
2023-02-06T04:07:23.877Z,100786.25
2023-02-06T04:09:50.570Z,100790.59
2023-02-06T04:12:17.495Z,100794.94
2023-02-06T04:14:44.673Z,100783.69
2023-02-06T04:17:12.294Z,100784.53
2023-02-06T04:19:39.446Z,100791.44
2023-02-06T04:22:07.130Z,100796.59
2023-02-06T04:24:33.711Z,100797.47
2023-02-06T04:27:00.392Z,100797.44
2023-02-06T04:29:27.035Z,100804.41
2023-02-06T04:31:53.598Z,100803.50
2023-02-06T04:34:20.130Z,100801.72
2023-02-06T04:36:46.694Z,100794.78
2023-02-06T04:39:13.249Z,100799.13
2023-02-06T04:41:39.821Z,100802.56
2023-02-06T04:44:06.408Z,100801.66
2023-02-06T04:46:32.986Z,100792.13
2023-02-06T04:48:59.570Z,100797.31
2023-02-06T04:51:26.207Z,100801.66
2023-02-06T04:53:52.760Z,100799.91
2023-02-06T04:56:19.379Z,100799.84
2023-02-06T04:58:45.980Z,100798.94
2023-02-06T05:01:12.711Z,100806.75
2023-02-06T05:03:39.466Z,100807.59
2023-02-06T05:06:06.337Z,100809.28
2023-02-06T05:08:32.897Z,100817.06
2023-02-06T05:10:59.493Z,100811.00
2023-02-06T05:13:26.242Z,100813.53
2023-02-06T05:15:53.320Z,100818.72
2023-02-06T05:18:20.000Z,100814.38
2023-02-06T05:20:46.901Z,100813.47
2023-02-06T05:23:13.482Z,100819.56
2023-02-06T05:25:42.202Z,100822.13
2023-02-06T05:28:09.134Z,100821.22
2023-02-06T05:30:36.390Z,100812.56
2023-02-06T05:33:03.029Z,100820.34
2023-02-06T05:35:29.930Z,100816.91
2023-02-06T05:37:57.445Z,100812.66
2023-02-06T05:40:24.319Z,100808.34
2023-02-06T05:42:51.175Z,100809.22
2023-02-06T05:45:17.823Z,100815.28
2023-02-06T05:47:44.438Z,100818.75
2023-02-06T05:50:11.016Z,100811.84
2023-02-06T05:52:37.615Z,100804.91
2023-02-06T05:55:04.289Z,100810.13
2023-02-06T05:57:31.070Z,100791.06
2023-02-06T05:59:57.606Z,100789.34
2023-02-06T06:02:24.407Z,100786.75
2023-02-06T06:04:51.055Z,100789.38
2023-02-06T06:07:17.723Z,100800.66
2023-02-06T06:09:44.286Z,100795.47
2023-02-06T06:12:10.948Z,100788.53
2023-02-06T06:14:37.475Z,100784.19
2023-02-06T06:17:04.158Z,100794.63
2023-02-06T06:19:30.803Z,100798.09
2023-02-06T06:21:58.376Z,100798.94
2023-02-06T06:24:25.819Z,100802.44
2023-02-06T06:26:52.641Z,100797.25
2023-02-06T06:29:19.264Z,100797.22
2023-02-06T06:31:46.067Z,100801.56
2023-02-06T06:34:12.803Z,100800.72
2023-02-06T06:36:39.460Z,100788.59
2023-02-06T06:39:06.213Z,100792.03
2023-02-06T06:41:32.865Z,100789.44
2023-02-06T06:43:59.634Z,100788.59
2023-02-06T06:46:26.677Z,100786.88
2023-02-06T06:48:53.321Z,100783.41
2023-02-06T06:51:20.219Z,100778.22
2023-02-06T06:53:46.802Z,100785.16
2023-02-06T06:56:14.967Z,100779.09
2023-02-06T06:58:42.253Z,100790.41
2023-02-06T07:01:09.162Z,100793.00
2023-02-06T07:03:36.754Z,100796.44
2023-02-06T07:06:04.274Z,100794.75
2023-02-06T07:08:31.500Z,100790.38
2023-02-06T07:10:58.469Z,100797.34
2023-02-06T07:13:25.177Z,100795.59
2023-02-06T07:15:51.744Z,100793.00
2023-02-06T07:18:18.509Z,100792.16
2023-02-06T07:20:45.155Z,100799.97
2023-02-06T07:23:11.720Z,100792.16
2023-02-06T07:25:38.533Z,100792.19
2023-02-06T07:28:05.401Z,100799.94
2023-02-06T07:30:31.985Z,100791.28
2023-02-06T07:32:58.567Z,100793.00
2023-02-06T07:35:25.130Z,100782.56
2023-02-06T07:37:55.182Z,100778.25
2023-02-06T07:40:22.369Z,100785.16
2023-02-06T07:42:49.117Z,100783.44
2023-02-06T07:45:15.865Z,100792.06
2023-02-06T07:47:42.894Z,100797.28
2023-02-06T07:50:10.293Z,100785.19
2023-02-06T07:52:37.004Z,100793.81
2023-02-06T07:55:04.654Z,100791.22
2023-02-06T07:57:31.334Z,100793.00
2023-02-06T07:59:57.935Z,100796.50
2023-02-06T08:02:25.020Z,100800.00
2023-02-06T08:04:51.544Z,100795.69
2023-02-06T08:07:18.138Z,100800.88
2023-02-06T08:09:45.151Z,100811.31
2023-02-06T08:12:12.106Z,100808.72
2023-02-06T08:14:38.977Z,100801.81
2023-02-06T08:17:05.857Z,100806.16
2023-02-06T08:19:32.381Z,100813.94
2023-02-06T08:21:58.934Z,100804.47
2023-02-06T08:24:25.806Z,100796.66
2023-02-06T08:26:52.384Z,100802.69
2023-02-06T08:29:19.124Z,100811.31
2023-02-06T08:31:45.900Z,100815.66
2023-02-06T08:34:14.996Z,100810.47
2023-02-06T08:36:43.689Z,100812.16
2023-02-06T08:39:13.672Z,100818.28
2023-02-06T08:41:43.590Z,100816.53
2023-02-06T08:44:16.137Z,100812.19
2023-02-06T08:46:44.451Z,100805.22
2023-02-06T08:49:19.077Z,100808.69
2023-02-06T08:51:46.282Z,100807.84
2023-02-06T08:54:19.398Z,100807.84
2023-02-06T08:56:46.310Z,100801.81
2023-02-06T08:59:15.332Z,100805.31
2023-02-06T09:01:45.367Z,100813.09
2023-02-06T09:04:14.079Z,100806.19
2023-02-06T09:06:43.450Z,100809.75
2023-02-06T09:09:11.135Z,100801.91
2023-02-06T09:11:37.950Z,100802.56
2023-02-06T09:14:06.395Z,100806.13
2023-02-06T09:16:34.048Z,100801.81
2023-02-06T09:19:01.671Z,100799.28
2023-02-06T09:21:33.662Z,100793.19
2023-02-06T09:24:02.352Z,100800.91
2023-02-06T09:26:38.891Z,100801.88
2023-02-06T09:29:09.527Z,100812.25
2023-02-06T09:31:39.199Z,100803.59
2023-02-06T09:34:06.720Z,100806.22
2023-02-06T09:36:35.116Z,100813.22
2023-02-06T09:39:04.762Z,100819.31
2023-02-06T09:41:37.646Z,100812.25
2023-02-06T09:44:13.517Z,100814.03
2023-02-06T09:46:54.214Z,100809.41
2023-02-06T09:49:26.078Z,100804.94
2023-02-06T09:51:55.652Z,100807.25
2023-02-06T09:54:40.916Z,100819.06
2023-02-06T09:57:15.429Z,100817.47
2023-02-06T09:59:48.186Z,100813.38
2023-02-06T10:02:33.096Z,100822.31
2023-02-06T10:05:26.007Z,100827.69
2023-02-06T10:08:19.238Z,100826.16
2023-02-06T10:10:51.967Z,100823.63
2023-02-06T10:13:24.278Z,100827.97
2023-02-06T10:15:55.619Z,100832.31
2023-02-06T10:18:48.574Z,100829.59
2023-02-06T10:21:38.948Z,100815.56
2023-02-06T10:24:14.329Z,100805.78
2023-02-06T10:26:41.939Z,100818.03
2023-02-06T10:29:20.002Z,100803.81
2023-02-06T10:31:55.809Z,100805.09
2023-02-06T10:34:45.994Z,100798.09
2023-02-06T10:37:22.820Z,100793.13
2023-02-06T10:39:55.212Z,100798.84
2023-02-06T10:43:00.324Z,100797.94
2023-02-06T10:45:32.807Z,100793.00
2023-02-06T10:48:10.623Z,100789.34
2023-02-06T10:50:44.363Z,100784.47
2023-02-06T10:53:32.819Z,100783.59
2023-02-06T10:56:12.747Z,100779.72
2023-02-06T10:59:22.300Z,100779.47
2023-02-06T11:01:53.948Z,100773.84
2023-02-06T11:04:27.427Z,100762.75
2023-02-06T11:07:00.601Z,100739.75
2023-02-06T11:09:27.218Z,100742.38
2023-02-06T11:11:56.806Z,100735.44
2023-02-06T11:14:28.645Z,100731.88
2023-02-06T11:16:59.516Z,100714.13
2023-02-06T11:19:30.992Z,100711.59
2023-02-06T11:22:12.573Z,100704.59
2023-02-06T11:24:57.654Z,100697.81
2023-02-06T11:27:24.603Z,100700.00
2023-02-06T11:29:52.398Z,100700.00
2023-02-06T11:33:02.548Z,100692.28
2023-02-06T11:35:37.283Z,100687.47
2023-02-06T11:38:12.948Z,100691.53
2023-02-06T11:40:39.615Z,100679.38
2023-02-06T11:43:12.262Z,100683.28
2023-02-06T11:45:40.935Z,100681.38
2023-02-06T11:48:31.843Z,100687.22
2023-02-06T11:50:58.752Z,100675.00
2023-02-06T11:53:25.411Z,100669.53
2023-02-06T11:56:20.451Z,100674.47
2023-02-06T11:59:00.448Z,100680.75
2023-02-06T12:01:27.064Z,100674.28
2023-02-06T12:03:58.193Z,100680.69
2023-02-06T12:06:34.935Z,100682.66
2023-02-06T12:09:05.631Z,100679.38
2023-02-06T12:12:04.488Z,100675.53
2023-02-06T12:14:31.016Z,100666.44
2023-02-06T12:16:59.293Z,100667.59
2023-02-06T12:19:35.516Z,100668.59
2023-02-06T12:22:12.286Z,100664.66
2023-02-06T12:24:43.811Z,100653.25
2023-02-06T12:27:19.301Z,100655.28
2023-02-06T12:30:06.907Z,100644.25
2023-02-06T12:32:40.828Z,100654.75
2023-02-06T12:35:21.597Z,100643.38
2023-02-06T12:38:01.123Z,100640.88
2023-02-06T12:40:45.961Z,100631.84
2023-02-06T12:43:15.893Z,100630.31
2023-02-06T12:45:53.982Z,100627.94
2023-02-06T12:48:28.864Z,100627.25
2023-02-06T12:51:10.177Z,100623.84
2023-02-06T12:53:43.025Z,100621.88
2023-02-06T12:56:21.517Z,100626.97
2023-02-06T12:59:06.857Z,100628.09
2023-02-06T13:01:52.876Z,100617.88
2023-02-06T13:04:24.860Z,100625.19
2023-02-06T13:07:05.178Z,100615.94
2023-02-06T13:09:41.833Z,100613.41
2023-02-06T13:12:20.330Z,100615.22
2023-02-06T13:14:54.214Z,100605.69
2023-02-06T13:17:34.450Z,100590.59
2023-02-06T13:20:11.683Z,100580.97
2023-02-06T13:22:49.528Z,100581.59
2023-02-06T13:25:25.122Z,100583.78
2023-02-06T13:27:53.240Z,100575.31
2023-02-06T13:30:28.733Z,100565.84
2023-02-06T13:33:16.390Z,100573.84
2023-02-06T13:36:05.593Z,100575.34
2023-02-06T13:38:35.129Z,100582.38
2023-02-06T13:41:16.982Z,100572.56
2023-02-06T13:43:57.738Z,100565.03
2023-02-06T13:47:00.534Z,100561.66
2023-02-06T13:49:39.145Z,100563.47
2023-02-06T13:52:28.810Z,100561.69
2023-02-06T13:55:14.366Z,100566.22
2023-02-06T13:58:02.739Z,100566.50
2023-02-06T14:00:32.468Z,100555.44
2023-02-06T14:03:38.385Z,100553.75
2023-02-06T14:06:11.000Z,100564.28
2023-02-06T14:08:43.628Z,100557.69
2023-02-06T14:11:25.311Z,100564.91
2023-02-06T14:14:01.079Z,100564.59
2023-02-06T14:16:54.189Z,100573.06
2023-02-06T14:19:57.137Z,100572.16
2023-02-06T14:22:46.670Z,100574.38
2023-02-06T14:25:27.070Z,100582.47
2023-02-06T14:27:59.881Z,100572.19
2023-02-06T14:30:34.788Z,100569.94
2023-02-06T14:33:25.486Z,100580.06
2023-02-06T14:36:20.941Z,100580.06
2023-02-06T14:39:19.148Z,62137.28
2023-02-06T14:41:45.948Z,62137.28
2023-02-06T14:44:22.330Z,62137.28
2023-02-06T14:46:48.991Z,62137.28
2023-02-06T14:49:23.817Z,62137.28
2023-02-06T14:51:52.571Z,62137.28
2023-02-06T14:54:34.740Z,62137.28
2023-02-06T14:57:04.864Z,62137.28
2023-02-06T14:59:32.397Z,62137.28
2023-02-06T15:01:59.893Z,62137.28
2023-02-06T15:04:30.630Z,62137.28
2023-02-06T15:07:00.412Z,62137.28
2023-02-06T15:09:37.794Z,62137.28
2023-02-06T15:12:18.910Z,62137.28
2023-02-06T15:14:55.177Z,62137.28
2023-02-06T15:17:24.721Z,62137.28
2023-02-06T15:19:51.298Z,62137.28
2023-02-06T15:22:28.623Z,62137.28
2023-02-06T15:25:07.553Z,62137.28
2023-02-06T15:27:36.740Z,62137.28
2023-02-06T15:30:18.099Z,62137.28
2023-02-06T15:32:50.050Z,62137.28
2023-02-06T15:35:35.944Z,62137.28
2023-02-06T15:38:10.851Z,62137.28
2023-02-06T15:40:42.251Z,62137.28
2023-02-06T15:43:15.375Z,62137.28
2023-02-06T15:45:44.128Z,62137.28
2023-02-06T15:48:34.087Z,62137.28
2023-02-06T15:51:16.021Z,62137.28
2023-02-06T15:53:44.285Z,62137.28
2023-02-06T15:56:23.395Z,62137.28
2023-02-06T15:58:58.097Z,62137.28
2023-02-06T16:01:26.392Z,62137.28
2023-02-06T16:03:58.349Z,62137.28
2023-02-06T16:06:24.990Z,100580.06
2023-02-06T16:08:56.957Z,100578.28
2023-02-06T16:11:47.468Z,100588.88
2023-02-06T16:14:41.329Z,100582.88
2023-02-06T16:17:14.197Z,100585.66
2023-02-06T16:19:54.135Z,100579.69
2023-02-06T16:22:28.047Z,100583.28
2023-02-06T16:25:13.061Z,100585.97
2023-02-06T16:27:45.674Z,100583.41
2023-02-06T16:30:34.215Z,100587.13
2023-02-06T16:33:21.697Z,100589.72
2023-02-06T16:35:49.141Z,100592.38
2023-02-06T16:38:15.695Z,100583.75
2023-02-06T16:40:42.270Z,100588.94
2023-02-06T16:43:11.425Z,100583.81
2023-02-06T16:45:38.007Z,100589.06
2023-02-06T16:48:11.791Z,100589.09
2023-02-06T16:50:42.162Z,100591.75
2023-02-06T16:53:24.390Z,100597.03
2023-02-06T16:55:51.587Z,100600.50
2023-02-06T16:58:23.719Z,100607.47
2023-02-06T17:00:51.729Z,100602.28
2023-02-06T17:03:18.338Z,100606.66
2023-02-06T17:05:47.297Z,100623.16
2023-02-06T17:08:17.711Z,100618.88
2023-02-06T17:10:45.421Z,100622.34
2023-02-06T17:13:23.545Z,100616.28
2023-02-06T17:15:53.146Z,100613.72
2023-02-06T17:18:21.753Z,100611.09
2023-02-06T17:20:52.858Z,100610.25
2023-02-06T17:23:19.560Z,100611.97
2023-02-06T17:25:46.602Z,100615.44
2023-02-06T17:28:16.997Z,100613.69
2023-02-06T17:30:44.469Z,100618.91
2023-02-06T17:33:11.478Z,100614.56
2023-02-06T17:35:38.544Z,100611.09
2023-02-06T17:38:07.050Z,100612.84
2023-02-06T17:40:35.871Z,100612.84
2023-02-06T17:43:04.689Z,100606.75
2023-02-06T17:45:31.803Z,100606.75
2023-02-06T17:47:58.406Z,100608.47
2023-02-06T17:50:27.658Z,100615.38
2023-02-06T17:52:55.787Z,100621.44
2023-02-06T17:55:24.064Z,100613.63
2023-02-06T17:57:51.352Z,100620.56
2023-02-06T18:00:19.479Z,100618.81
2023-02-06T18:02:46.265Z,100612.75
2023-02-06T18:05:12.904Z,100598.03
2023-02-06T18:07:39.985Z,100607.53
2023-02-06T18:10:07.445Z,100598.00
2023-02-06T18:12:34.476Z,100594.53
2023-02-06T18:15:01.184Z,100592.78
2023-02-06T18:17:27.770Z,100591.03
2023-02-06T18:19:54.328Z,100573.75
2023-02-06T18:22:21.850Z,100573.72
2023-02-06T18:24:49.958Z,100574.59
2023-02-06T18:27:17.722Z,100568.50
2023-02-06T18:29:50.120Z,100579.72
2023-02-06T18:32:19.150Z,100566.75
2023-02-06T18:34:46.364Z,100571.09
2023-02-06T18:37:13.067Z,100560.69
2023-02-06T18:39:39.772Z,100552.03
2023-02-06T18:42:25.215Z,100555.47
2023-02-06T18:44:51.883Z,100540.75
2023-02-06T18:47:18.994Z,100552.88
2023-02-06T18:49:45.953Z,100551.13
2023-02-06T18:52:12.623Z,100558.06
2023-02-06T18:54:39.572Z,100553.72
2023-02-06T18:57:06.567Z,100563.22
2023-02-06T18:59:33.217Z,100554.53
2023-02-06T19:01:59.923Z,100555.41
2023-02-06T19:04:26.689Z,100553.63
2023-02-06T19:06:53.297Z,100545.84
2023-02-06T19:09:20.157Z,100547.53
2023-02-06T19:11:47.782Z,100540.63
2023-02-06T19:14:17.007Z,100551.00
2023-02-06T19:16:47.344Z,100534.53
2023-02-06T19:19:14.625Z,100529.31
2023-02-06T19:21:41.902Z,100537.94
2023-02-06T19:24:12.949Z,100524.97
2023-02-06T19:26:39.590Z,100537.97
2023-02-06T19:29:06.398Z,100532.75
2023-02-06T19:31:34.950Z,100550.91
2023-02-06T19:34:02.330Z,100545.72
2023-02-06T19:36:29.983Z,100541.38
2023-02-06T19:38:59.912Z,100552.63
2023-02-06T19:41:28.469Z,100550.00
2023-02-06T19:43:56.950Z,100559.50
2023-02-06T19:46:26.043Z,100554.34
2023-02-06T19:48:54.356Z,100553.41
2023-02-06T19:51:34.632Z,100564.66
2023-02-06T19:54:01.641Z,100567.19
2023-02-06T19:56:32.696Z,100555.09
2023-02-06T19:58:59.916Z,100565.47
2023-02-06T20:01:29.571Z,100564.56
2023-02-06T20:04:01.088Z,100561.06
2023-02-06T20:06:29.456Z,100569.66
2023-02-06T20:08:56.767Z,100566.13
2023-02-06T20:11:23.764Z,100564.41
2023-02-06T20:13:55.530Z,100556.63
2023-02-06T20:16:25.278Z,100560.09
2023-02-06T20:18:53.204Z,100558.38
2023-02-06T20:21:27.925Z,100551.50
2023-02-06T20:23:56.438Z,100559.28
2023-02-06T20:26:26.613Z,100555.81
2023-02-06T20:28:53.793Z,100573.09
2023-02-06T20:31:21.304Z,100571.31
2023-02-06T20:33:49.066Z,100584.31
2023-02-06T20:36:18.861Z,100587.81
2023-02-06T20:38:59.627Z,100582.69
2023-02-06T20:41:30.926Z,100596.50
2023-02-06T20:43:59.641Z,100593.91
2023-02-06T20:46:28.403Z,100593.03
2023-02-06T20:49:12.133Z,100587.84
2023-02-06T20:51:38.706Z,100592.19
2023-02-06T20:54:06.574Z,100589.63
2023-02-06T20:56:33.672Z,100595.66
2023-02-06T20:59:01.340Z,100588.72
2023-02-06T21:01:30.773Z,100580.09
2023-02-06T21:04:00.282Z,100593.03
2023-02-06T21:06:28.060Z,100595.66
2023-02-06T21:09:00.169Z,100589.59
2023-02-06T21:11:34.086Z,100599.09
2023-02-06T21:14:03.084Z,100595.63
2023-02-06T21:16:31.297Z,100591.31
2023-02-06T21:18:59.247Z,100598.31
2023-02-06T21:21:26.762Z,100598.22
2023-02-06T21:23:55.676Z,100589.59
2023-02-06T21:26:23.800Z,100588.69
2023-02-06T21:28:51.616Z,100596.50
2023-02-06T21:31:34.162Z,100600.81
2023-02-06T21:34:15.350Z,100590.44
2023-02-06T21:36:42.685Z,100590.41
2023-02-06T21:39:09.994Z,100581.75
2023-02-06T21:41:37.192Z,100586.94
2023-02-06T21:44:04.124Z,100592.06
2023-02-06T21:46:30.994Z,100584.25
2023-02-06T21:48:57.768Z,100584.25
2023-02-06T21:51:24.630Z,100579.06
2023-02-06T21:53:51.447Z,100560.94
2023-02-06T21:56:23.871Z,100559.16
2023-02-06T21:58:51.156Z,100555.63
2023-02-06T22:01:21.190Z,100540.06
2023-02-06T22:03:48.542Z,100538.22
2023-02-06T22:06:15.893Z,100543.41
2023-02-06T22:08:45.912Z,100539.94
2023-02-06T22:11:24.870Z,100558.00
2023-02-06T22:13:52.008Z,100564.91
2023-02-06T22:16:22.831Z,100569.19
2023-02-06T22:18:50.142Z,100576.09
2023-02-06T22:21:20.443Z,100572.59
2023-02-06T22:23:48.374Z,100569.16
2023-02-06T22:26:17.485Z,100566.56
2023-02-06T22:28:44.859Z,100572.66
2023-02-06T22:31:15.212Z,100571.78
2023-02-06T22:33:42.758Z,100570.88
2023-02-06T22:36:14.868Z,100566.47
2023-02-06T22:38:43.018Z,100563.84
2023-02-06T22:41:15.715Z,100569.03
2023-02-06T22:43:43.586Z,100568.97
2023-02-06T22:46:16.811Z,100568.09
2023-02-06T22:48:43.388Z,100568.91
2023-02-06T22:51:10.505Z,100555.13
2023-02-06T22:53:38.184Z,100545.59
2023-02-06T22:56:26.564Z,100546.44
2023-02-06T22:59:23.353Z,100567.16
2023-02-06T23:01:53.102Z,100557.56
2023-02-06T23:04:22.969Z,100554.09
2023-02-06T23:06:50.698Z,100548.91
2023-02-06T23:09:24.271Z,100553.16
2023-02-06T23:11:51.754Z,100557.44
2023-02-06T23:14:18.929Z,100541.91
2023-02-06T23:16:46.172Z,100551.38
2023-02-06T23:19:14.270Z,100562.59
2023-02-06T23:21:42.648Z,100567.66
2023-02-06T23:24:10.355Z,100564.16
2023-02-06T23:26:37.617Z,100571.06
2023-02-06T23:29:07.000Z,100570.16
2023-02-06T23:31:34.004Z,100563.28
2023-02-06T23:34:00.757Z,100577.06
2023-02-06T23:36:28.726Z,100590.81
2023-02-06T23:38:55.878Z,100594.34
2023-02-06T23:41:25.522Z,100598.56
2023-02-06T23:43:55.173Z,100597.69
2023-02-06T23:46:22.401Z,100607.13
2023-02-06T23:48:49.462Z,100597.59
2023-02-06T23:51:17.499Z,100598.38
2023-02-06T23:53:44.256Z,100598.34
2023-02-06T23:56:14.360Z,100608.72
2023-02-06T23:58:41.365Z,100607.00
